sensor_id;sensor_type;location;lat;lon;timestamp;P1;durP1;ratioP1;P2;durP2;ratioP2
67819;SDS011;54618;52.018;5.576;2023-08-06T00:00:14;8.45;;;3.40;;
67819;SDS011;54618;52.018;5.576;2023-08-06T00:02:39;5.97;;;3.17;;
67819;SDS011;54618;52.018;5.576;2023-08-06T00:05:05;5.03;;;3.20;;
67819;SDS011;54618;52.018;5.576;2023-08-06T00:07:31;5.57;;;3.33;;
67819;SDS011;54618;52.018;5.576;2023-08-06T00:09:56;9.50;;;3.58;;
67819;SDS011;54618;52.018;5.576;2023-08-06T00:12:22;6.50;;;3.40;;
67819;SDS011;54618;52.018;5.576;2023-08-06T00:14:51;7.28;;;3.30;;
67819;SDS011;54618;52.018;5.576;2023-08-06T00:17:18;9.52;;;3.63;;
67819;SDS011;54618;52.018;5.576;2023-08-06T00:19:44;5.38;;;3.75;;
67819;SDS011;54618;52.018;5.576;2023-08-06T00:22:10;5.63;;;3.40;;
67819;SDS011;54618;52.018;5.576;2023-08-06T00:24:35;8.25;;;3.53;;
67819;SDS011;54618;52.018;5.576;2023-08-06T00:27:01;5.90;;;3.92;;
67819;SDS011;54618;52.018;5.576;2023-08-06T00:29:27;7.25;;;3.63;;
67819;SDS011;54618;52.018;5.576;2023-08-06T00:31:56;7.30;;;4.00;;
67819;SDS011;54618;52.018;5.576;2023-08-06T00:34:21;6.13;;;3.58;;
67819;SDS011;54618;52.018;5.576;2023-08-06T00:36:47;5.53;;;3.50;;
67819;SDS011;54618;52.018;5.576;2023-08-06T00:39:12;6.95;;;3.92;;
67819;SDS011;54618;52.018;5.576;2023-08-06T00:41:38;7.43;;;3.55;;
67819;SDS011;54618;52.018;5.576;2023-08-06T00:44:04;6.13;;;3.80;;
67819;SDS011;54618;52.018;5.576;2023-08-06T00:46:30;5.63;;;3.63;;
67819;SDS011;54618;52.018;5.576;2023-08-06T00:48:57;6.80;;;3.70;;
67819;SDS011;54618;52.018;5.576;2023-08-06T00:51:23;8.75;;;4.00;;
67819;SDS011;54618;52.018;5.576;2023-08-06T00:53:50;6.28;;;3.92;;
67819;SDS011;54618;52.018;5.576;2023-08-06T00:56:17;10.75;;;4.05;;
67819;SDS011;54618;52.018;5.576;2023-08-06T00:58:42;7.80;;;4.05;;
67819;SDS011;54618;52.018;5.576;2023-08-06T01:01:09;6.10;;;3.65;;
67819;SDS011;54618;52.018;5.576;2023-08-06T01:03:35;10.05;;;4.00;;
67819;SDS011;54618;52.018;5.576;2023-08-06T01:06:01;9.23;;;3.72;;
67819;SDS011;54618;52.018;5.576;2023-08-06T01:08:36;9.32;;;4.07;;
67819;SDS011;54618;52.018;5.576;2023-08-06T01:14:03;9.68;;;3.75;;
67819;SDS011;54618;52.018;5.576;2023-08-06T01:16:37;6.07;;;3.25;;
67819;SDS011;54618;52.018;5.576;2023-08-06T01:19:04;6.60;;;3.53;;
67819;SDS011;54618;52.018;5.576;2023-08-06T01:21:40;9.05;;;3.90;;
67819;SDS011;54618;52.018;5.576;2023-08-06T01:24:05;6.30;;;3.75;;
67819;SDS011;54618;52.018;5.576;2023-08-06T01:26:36;7.53;;;3.88;;
67819;SDS011;54618;52.018;5.576;2023-08-06T01:32:02;7.03;;;3.83;;
67819;SDS011;54618;52.018;5.576;2023-08-06T01:34:32;6.97;;;3.78;;
67819;SDS011;54618;52.018;5.576;2023-08-06T01:36:59;8.82;;;3.92;;
67819;SDS011;54618;52.018;5.576;2023-08-06T01:39:26;6.32;;;3.83;;
67819;SDS011;54618;52.018;5.576;2023-08-06T01:41:52;6.45;;;4.13;;
67819;SDS011;54618;52.018;5.576;2023-08-06T01:44:17;6.82;;;4.10;;
67819;SDS011;54618;52.018;5.576;2023-08-06T01:46:43;9.75;;;4.60;;
67819;SDS011;54618;52.018;5.576;2023-08-06T01:49:09;9.43;;;4.80;;
67819;SDS011;54618;52.018;5.576;2023-08-06T01:51:34;10.10;;;5.15;;
67819;SDS011;54618;52.018;5.576;2023-08-06T01:54:00;12.90;;;5.40;;
67819;SDS011;54618;52.018;5.576;2023-08-06T01:56:25;11.48;;;5.60;;
67819;SDS011;54618;52.018;5.576;2023-08-06T01:58:51;10.73;;;5.82;;
67819;SDS011;54618;52.018;5.576;2023-08-06T02:01:17;10.18;;;6.20;;
67819;SDS011;54618;52.018;5.576;2023-08-06T02:03:42;9.68;;;6.25;;
67819;SDS011;54618;52.018;5.576;2023-08-06T02:06:08;12.82;;;6.63;;
67819;SDS011;54618;52.018;5.576;2023-08-06T02:08:33;11.88;;;7.07;;
67819;SDS011;54618;52.018;5.576;2023-08-06T02:11:02;12.52;;;7.03;;
67819;SDS011;54618;52.018;5.576;2023-08-06T02:13:28;9.73;;;6.95;;
67819;SDS011;54618;52.018;5.576;2023-08-06T02:15:56;10.43;;;6.45;;
67819;SDS011;54618;52.018;5.576;2023-08-06T02:18:21;10.73;;;7.25;;
67819;SDS011;54618;52.018;5.576;2023-08-06T02:21:00;12.15;;;6.50;;
67819;SDS011;54618;52.018;5.576;2023-08-06T02:23:25;14.32;;;7.05;;
67819;SDS011;54618;52.018;5.576;2023-08-06T02:26:01;14.18;;;6.93;;
67819;SDS011;54618;52.018;5.576;2023-08-06T02:28:28;10.85;;;6.47;;
67819;SDS011;54618;52.018;5.576;2023-08-06T02:30:57;10.25;;;6.45;;
67819;SDS011;54618;52.018;5.576;2023-08-06T02:33:23;11.98;;;6.72;;
67819;SDS011;54618;52.018;5.576;2023-08-06T02:35:48;9.30;;;6.13;;
67819;SDS011;54618;52.018;5.576;2023-08-06T02:38:14;11.27;;;6.30;;
67819;SDS011;54618;52.018;5.576;2023-08-06T02:40:43;10.02;;;6.00;;
67819;SDS011;54618;52.018;5.576;2023-08-06T02:43:10;9.35;;;6.13;;
67819;SDS011;54618;52.018;5.576;2023-08-06T02:45:36;8.73;;;5.70;;
67819;SDS011;54618;52.018;5.576;2023-08-06T02:48:01;10.55;;;5.90;;
67819;SDS011;54618;52.018;5.576;2023-08-06T02:50:27;10.63;;;6.40;;
67819;SDS011;54618;52.018;5.576;2023-08-06T02:52:53;9.43;;;5.43;;
67819;SDS011;54618;52.018;5.576;2023-08-06T02:55:18;9.65;;;5.95;;
67819;SDS011;54618;52.018;5.576;2023-08-06T02:57:44;8.88;;;5.95;;
67819;SDS011;54618;52.018;5.576;2023-08-06T03:00:10;9.18;;;5.93;;
67819;SDS011;54618;52.018;5.576;2023-08-06T03:02:36;9.80;;;5.97;;
67819;SDS011;54618;52.018;5.576;2023-08-06T03:05:02;10.38;;;6.32;;
67819;SDS011;54618;52.018;5.576;2023-08-06T03:07:31;9.18;;;6.10;;
67819;SDS011;54618;52.018;5.576;2023-08-06T03:10:01;11.60;;;6.23;;
67819;SDS011;54618;52.018;5.576;2023-08-06T03:12:27;9.15;;;5.70;;
67819;SDS011;54618;52.018;5.576;2023-08-06T03:14:53;11.95;;;6.70;;
67819;SDS011;54618;52.018;5.576;2023-08-06T03:17:19;9.77;;;6.10;;
67819;SDS011;54618;52.018;5.576;2023-08-06T03:19:44;9.52;;;6.05;;
67819;SDS011;54618;52.018;5.576;2023-08-06T03:22:10;11.35;;;5.93;;
67819;SDS011;54618;52.018;5.576;2023-08-06T03:24:35;12.60;;;6.05;;
67819;SDS011;54618;52.018;5.576;2023-08-06T03:27:01;10.95;;;6.25;;
67819;SDS011;54618;52.018;5.576;2023-08-06T03:29:26;9.32;;;6.40;;
67819;SDS011;54618;52.018;5.576;2023-08-06T03:31:52;10.20;;;6.40;;
67819;SDS011;54618;52.018;5.576;2023-08-06T03:34:18;8.35;;;5.72;;
67819;SDS011;54618;52.018;5.576;2023-08-06T03:36:43;9.52;;;6.50;;
67819;SDS011;54618;52.018;5.576;2023-08-06T03:39:09;11.18;;;6.65;;
67819;SDS011;54618;52.018;5.576;2023-08-06T03:41:35;13.82;;;6.88;;
67819;SDS011;54618;52.018;5.576;2023-08-06T03:44:00;9.05;;;6.30;;
67819;SDS011;54618;52.018;5.576;2023-08-06T03:46:31;10.45;;;6.38;;
67819;SDS011;54618;52.018;5.576;2023-08-06T03:49:02;10.30;;;6.85;;
67819;SDS011;54618;52.018;5.576;2023-08-06T03:51:27;9.75;;;6.50;;
67819;SDS011;54618;52.018;5.576;2023-08-06T03:53:53;10.98;;;6.78;;
67819;SDS011;54618;52.018;5.576;2023-08-06T03:56:19;10.48;;;6.57;;
67819;SDS011;54618;52.018;5.576;2023-08-06T03:58:44;11.77;;;6.85;;
67819;SDS011;54618;52.018;5.576;2023-08-06T04:01:10;13.02;;;7.65;;
67819;SDS011;54618;52.018;5.576;2023-08-06T04:03:35;10.30;;;6.90;;
67819;SDS011;54618;52.018;5.576;2023-08-06T04:06:04;10.38;;;6.82;;
67819;SDS011;54618;52.018;5.576;2023-08-06T04:08:30;13.65;;;7.13;;
67819;SDS011;54618;52.018;5.576;2023-08-06T04:10:56;11.57;;;6.68;;
67819;SDS011;54618;52.018;5.576;2023-08-06T04:13:22;11.23;;;7.45;;
67819;SDS011;54618;52.018;5.576;2023-08-06T04:15:48;8.85;;;6.13;;
67819;SDS011;54618;52.018;5.576;2023-08-06T04:18:13;14.57;;;6.82;;
67819;SDS011;54618;52.018;5.576;2023-08-06T04:20:46;12.50;;;6.50;;
67819;SDS011;54618;52.018;5.576;2023-08-06T04:23:14;10.77;;;6.80;;
67819;SDS011;54618;52.018;5.576;2023-08-06T04:25:40;10.57;;;7.30;;
67819;SDS011;54618;52.018;5.576;2023-08-06T04:28:06;9.95;;;6.68;;
67819;SDS011;54618;52.018;5.576;2023-08-06T04:30:32;11.18;;;7.10;;
67819;SDS011;54618;52.018;5.576;2023-08-06T04:32:57;11.05;;;7.05;;
67819;SDS011;54618;52.018;5.576;2023-08-06T04:35:23;10.88;;;7.30;;
67819;SDS011;54618;52.018;5.576;2023-08-06T04:37:49;11.85;;;7.18;;
67819;SDS011;54618;52.018;5.576;2023-08-06T04:40:14;11.38;;;7.55;;
67819;SDS011;54618;52.018;5.576;2023-08-06T04:42:40;14.88;;;7.80;;
67819;SDS011;54618;52.018;5.576;2023-08-06T04:45:06;11.02;;;7.22;;
67819;SDS011;54618;52.018;5.576;2023-08-06T04:47:32;12.60;;;7.45;;
67819;SDS011;54618;52.018;5.576;2023-08-06T04:49:57;10.80;;;7.38;;
67819;SDS011;54618;52.018;5.576;2023-08-06T04:52:23;14.15;;;8.00;;
67819;SDS011;54618;52.018;5.576;2023-08-06T04:54:52;12.48;;;8.10;;
67819;SDS011;54618;52.018;5.576;2023-08-06T04:57:18;11.60;;;7.30;;
67819;SDS011;54618;52.018;5.576;2023-08-06T04:59:43;12.13;;;7.43;;
67819;SDS011;54618;52.018;5.576;2023-08-06T05:02:09;10.75;;;7.22;;
67819;SDS011;54618;52.018;5.576;2023-08-06T05:04:34;12.55;;;7.22;;
67819;SDS011;54618;52.018;5.576;2023-08-06T05:07:03;11.90;;;7.15;;
67819;SDS011;54618;52.018;5.576;2023-08-06T05:09:28;11.73;;;7.75;;
67819;SDS011;54618;52.018;5.576;2023-08-06T05:11:57;11.38;;;7.47;;
67819;SDS011;54618;52.018;5.576;2023-08-06T05:14:22;11.77;;;7.18;;
67819;SDS011;54618;52.018;5.576;2023-08-06T05:16:48;11.40;;;7.57;;
67819;SDS011;54618;52.018;5.576;2023-08-06T05:19:13;12.43;;;7.60;;
67819;SDS011;54618;52.018;5.576;2023-08-06T05:21:39;12.70;;;7.93;;
67819;SDS011;54618;52.018;5.576;2023-08-06T05:24:05;11.15;;;7.70;;
67819;SDS011;54618;52.018;5.576;2023-08-06T05:26:33;12.93;;;8.15;;
67819;SDS011;54618;52.018;5.576;2023-08-06T05:29:02;12.27;;;8.18;;
67819;SDS011;54618;52.018;5.576;2023-08-06T05:31:28;13.30;;;8.35;;
67819;SDS011;54618;52.018;5.576;2023-08-06T05:33:54;15.88;;;8.73;;
67819;SDS011;54618;52.018;5.576;2023-08-06T05:36:20;15.57;;;8.63;;
67819;SDS011;54618;52.018;5.576;2023-08-06T05:38:46;15.73;;;9.15;;
67819;SDS011;54618;52.018;5.576;2023-08-06T05:41:12;16.35;;;9.50;;
67819;SDS011;54618;52.018;5.576;2023-08-06T05:43:37;14.88;;;9.23;;
67819;SDS011;54618;52.018;5.576;2023-08-06T05:46:03;12.90;;;8.73;;
67819;SDS011;54618;52.018;5.576;2023-08-06T05:48:29;15.88;;;9.50;;
67819;SDS011;54618;52.018;5.576;2023-08-06T05:50:58;14.70;;;8.93;;
67819;SDS011;54618;52.018;5.576;2023-08-06T05:53:24;17.02;;;9.73;;
67819;SDS011;54618;52.018;5.576;2023-08-06T05:55:49;16.08;;;9.48;;
67819;SDS011;54618;52.018;5.576;2023-08-06T05:58:15;18.95;;;9.85;;
67819;SDS011;54618;52.018;5.576;2023-08-06T06:00:41;14.60;;;9.63;;
67819;SDS011;54618;52.018;5.576;2023-08-06T06:03:06;13.90;;;8.77;;
67819;SDS011;54618;52.018;5.576;2023-08-06T06:05:32;13.98;;;8.95;;
67819;SDS011;54618;52.018;5.576;2023-08-06T06:07:57;15.38;;;9.25;;
67819;SDS011;54618;52.018;5.576;2023-08-06T06:10:23;14.65;;;9.77;;
67819;SDS011;54618;52.018;5.576;2023-08-06T06:12:48;14.88;;;9.45;;
67819;SDS011;54618;52.018;5.576;2023-08-06T06:15:14;18.40;;;10.23;;
67819;SDS011;54618;52.018;5.576;2023-08-06T06:17:40;14.75;;;9.50;;
67819;SDS011;54618;52.018;5.576;2023-08-06T06:20:05;15.75;;;10.40;;
67819;SDS011;54618;52.018;5.576;2023-08-06T06:22:31;15.88;;;10.05;;
67819;SDS011;54618;52.018;5.576;2023-08-06T06:24:57;16.75;;;10.40;;
67819;SDS011;54618;52.018;5.576;2023-08-06T06:27:23;17.48;;;10.57;;
67819;SDS011;54618;52.018;5.576;2023-08-06T06:29:48;19.25;;;10.57;;
67819;SDS011;54618;52.018;5.576;2023-08-06T06:32:14;16.00;;;10.43;;
67819;SDS011;54618;52.018;5.576;2023-08-06T06:34:39;15.88;;;10.50;;
67819;SDS011;54618;52.018;5.576;2023-08-06T06:37:05;15.65;;;10.55;;
67819;SDS011;54618;52.018;5.576;2023-08-06T06:39:31;16.02;;;10.70;;
67819;SDS011;54618;52.018;5.576;2023-08-06T06:41:56;18.25;;;10.68;;
67819;SDS011;54618;52.018;5.576;2023-08-06T06:44:22;17.40;;;11.18;;
67819;SDS011;54618;52.018;5.576;2023-08-06T06:46:47;15.13;;;9.77;;
67819;SDS011;54618;52.018;5.576;2023-08-06T06:49:13;18.33;;;10.60;;
67819;SDS011;54618;52.018;5.576;2023-08-06T06:51:38;15.68;;;10.30;;
67819;SDS011;54618;52.018;5.576;2023-08-06T06:54:04;18.08;;;10.77;;
67819;SDS011;54618;52.018;5.576;2023-08-06T06:56:33;17.10;;;11.23;;
67819;SDS011;54618;52.018;5.576;2023-08-06T06:58:58;15.65;;;10.45;;
67819;SDS011;54618;52.018;5.576;2023-08-06T07:01:24;16.35;;;9.95;;
67819;SDS011;54618;52.018;5.576;2023-08-06T07:03:49;15.02;;;10.10;;
67819;SDS011;54618;52.018;5.576;2023-08-06T07:06:15;18.35;;;10.32;;
67819;SDS011;54618;52.018;5.576;2023-08-06T07:08:43;15.40;;;9.98;;
67819;SDS011;54618;52.018;5.576;2023-08-06T07:11:09;13.68;;;9.00;;
67819;SDS011;54618;52.018;5.576;2023-08-06T07:13:34;15.05;;;10.23;;
67819;SDS011;54618;52.018;5.576;2023-08-06T07:16:00;17.00;;;9.73;;
67819;SDS011;54618;52.018;5.576;2023-08-06T07:18:26;16.25;;;9.90;;
67819;SDS011;54618;52.018;5.576;2023-08-06T07:20:52;15.38;;;9.35;;
67819;SDS011;54618;52.018;5.576;2023-08-06T07:23:19;15.70;;;9.95;;
67819;SDS011;54618;52.018;5.576;2023-08-06T07:25:46;14.13;;;9.57;;
67819;SDS011;54618;52.018;5.576;2023-08-06T07:28:12;16.27;;;9.90;;
67819;SDS011;54618;52.018;5.576;2023-08-06T07:30:39;14.77;;;9.75;;
67819;SDS011;54618;52.018;5.576;2023-08-06T07:33:05;14.93;;;9.50;;
67819;SDS011;54618;52.018;5.576;2023-08-06T07:35:31;15.57;;;9.55;;
67819;SDS011;54618;52.018;5.576;2023-08-06T07:37:57;13.80;;;9.15;;
67819;SDS011;54618;52.018;5.576;2023-08-06T07:40:22;14.98;;;8.82;;
67819;SDS011;54618;52.018;5.576;2023-08-06T07:42:48;15.93;;;9.95;;
67819;SDS011;54618;52.018;5.576;2023-08-06T07:45:14;15.27;;;10.00;;
67819;SDS011;54618;52.018;5.576;2023-08-06T07:47:39;14.50;;;9.30;;
67819;SDS011;54618;52.018;5.576;2023-08-06T07:50:05;16.00;;;10.23;;
67819;SDS011;54618;52.018;5.576;2023-08-06T07:52:31;14.52;;;9.23;;
67819;SDS011;54618;52.018;5.576;2023-08-06T07:54:56;15.60;;;9.50;;
67819;SDS011;54618;52.018;5.576;2023-08-06T07:57:22;14.45;;;8.73;;
67819;SDS011;54618;52.018;5.576;2023-08-06T07:59:55;13.77;;;8.85;;
67819;SDS011;54618;52.018;5.576;2023-08-06T08:02:24;13.07;;;8.27;;
67819;SDS011;54618;52.018;5.576;2023-08-06T08:04:50;12.45;;;7.57;;
67819;SDS011;54618;52.018;5.576;2023-08-06T08:07:15;9.05;;;6.05;;
67819;SDS011;54618;52.018;5.576;2023-08-06T08:09:41;8.02;;;5.35;;
67819;SDS011;54618;52.018;5.576;2023-08-06T08:12:07;7.30;;;5.05;;
67819;SDS011;54618;52.018;5.576;2023-08-06T08:14:32;7.72;;;4.80;;
67819;SDS011;54618;52.018;5.576;2023-08-06T08:17:03;8.55;;;5.40;;
67819;SDS011;54618;52.018;5.576;2023-08-06T08:19:30;8.57;;;6.13;;
67819;SDS011;54618;52.018;5.576;2023-08-06T08:21:56;8.82;;;6.00;;
67819;SDS011;54618;52.018;5.576;2023-08-06T08:24:22;8.63;;;6.10;;
67819;SDS011;54618;52.018;5.576;2023-08-06T08:26:51;9.25;;;6.35;;
67819;SDS011;54618;52.018;5.576;2023-08-06T08:29:17;10.13;;;6.78;;
67819;SDS011;54618;52.018;5.576;2023-08-06T08:31:44;9.95;;;7.00;;
67819;SDS011;54618;52.018;5.576;2023-08-06T08:34:09;7.82;;;5.45;;
67819;SDS011;54618;52.018;5.576;2023-08-06T08:36:35;6.05;;;4.43;;
67819;SDS011;54618;52.018;5.576;2023-08-06T08:39:04;3.58;;;2.40;;
67819;SDS011;54618;52.018;5.576;2023-08-06T08:41:33;2.38;;;1.40;;
67819;SDS011;54618;52.018;5.576;2023-08-06T08:44:02;2.37;;;1.30;;
67819;SDS011;54618;52.018;5.576;2023-08-06T08:46:32;1.85;;;0.88;;
67819;SDS011;54618;52.018;5.576;2023-08-06T08:48:59;0.40;;;0.40;;
67819;SDS011;54618;52.018;5.576;2023-08-06T08:51:27;0.90;;;0.52;;
67819;SDS011;54618;52.018;5.576;2023-08-06T08:53:54;1.13;;;0.80;;
67819;SDS011;54618;52.018;5.576;2023-08-06T08:56:28;1.65;;;1.00;;
67819;SDS011;54618;52.018;5.576;2023-08-06T08:58:54;2.17;;;0.82;;
67819;SDS011;54618;52.018;5.576;2023-08-06T09:01:20;2.85;;;1.00;;
67819;SDS011;54618;52.018;5.576;2023-08-06T09:03:47;1.52;;;0.90;;
67819;SDS011;54618;52.018;5.576;2023-08-06T09:06:13;1.63;;;0.90;;
67819;SDS011;54618;52.018;5.576;2023-08-06T09:08:47;1.98;;;1.00;;
67819;SDS011;54618;52.018;5.576;2023-08-06T09:11:27;2.13;;;1.30;;
67819;SDS011;54618;52.018;5.576;2023-08-06T09:14:03;2.97;;;1.35;;
67819;SDS011;54618;52.018;5.576;2023-08-06T09:16:29;2.30;;;1.30;;
67819;SDS011;54618;52.018;5.576;2023-08-06T09:19:09;2.65;;;1.10;;
67819;SDS011;54618;52.018;5.576;2023-08-06T09:21:42;3.90;;;1.13;;
67819;SDS011;54618;52.018;5.576;2023-08-06T09:24:09;2.15;;;1.10;;
67819;SDS011;54618;52.018;5.576;2023-08-06T09:26:39;2.00;;;1.20;;
67819;SDS011;54618;52.018;5.576;2023-08-06T09:29:05;2.67;;;1.40;;
67819;SDS011;54618;52.018;5.576;2023-08-06T09:31:32;3.90;;;1.40;;
67819;SDS011;54618;52.018;5.576;2023-08-06T09:34:06;3.60;;;1.48;;
67819;SDS011;54618;52.018;5.576;2023-08-06T09:36:46;3.08;;;1.88;;
67819;SDS011;54618;52.018;5.576;2023-08-06T09:39:13;2.95;;;1.85;;
67819;SDS011;54618;52.018;5.576;2023-08-06T09:41:42;2.60;;;1.65;;
67819;SDS011;54618;52.018;5.576;2023-08-06T09:44:18;3.20;;;2.22;;
67819;SDS011;54618;52.018;5.576;2023-08-06T09:46:51;5.18;;;2.35;;
67819;SDS011;54618;52.018;5.576;2023-08-06T09:49:25;4.32;;;2.15;;
67819;SDS011;54618;52.018;5.576;2023-08-06T09:51:52;3.83;;;2.55;;
67819;SDS011;54618;52.018;5.576;2023-08-06T09:54:24;4.53;;;2.78;;
67819;SDS011;54618;52.018;5.576;2023-08-06T09:56:53;4.18;;;2.70;;
67819;SDS011;54618;52.018;5.576;2023-08-06T09:59:22;5.13;;;2.53;;
67819;SDS011;54618;52.018;5.576;2023-08-06T10:01:49;4.90;;;2.55;;
67819;SDS011;54618;52.018;5.576;2023-08-06T10:04:15;4.20;;;2.50;;
67819;SDS011;54618;52.018;5.576;2023-08-06T10:06:47;4.25;;;2.45;;
67819;SDS011;54618;52.018;5.576;2023-08-06T10:09:16;4.82;;;2.75;;
67819;SDS011;54618;52.018;5.576;2023-08-06T10:11:43;4.20;;;2.60;;
67819;SDS011;54618;52.018;5.576;2023-08-06T10:14:14;4.30;;;3.00;;
67819;SDS011;54618;52.018;5.576;2023-08-06T10:16:44;5.00;;;2.95;;
67819;SDS011;54618;52.018;5.576;2023-08-06T10:19:12;4.88;;;2.80;;
67819;SDS011;54618;52.018;5.576;2023-08-06T10:21:38;5.05;;;3.00;;
67819;SDS011;54618;52.018;5.576;2023-08-06T10:24:06;5.43;;;3.22;;
67819;SDS011;54618;52.018;5.576;2023-08-06T10:26:35;4.43;;;2.60;;
67819;SDS011;54618;52.018;5.576;2023-08-06T10:29:03;7.03;;;3.50;;
67819;SDS011;54618;52.018;5.576;2023-08-06T10:32:02;7.38;;;3.50;;
67819;SDS011;54618;52.018;5.576;2023-08-06T10:37:23;7.40;;;3.20;;
67819;SDS011;54618;52.018;5.576;2023-08-06T10:39:59;6.47;;;3.20;;
67819;SDS011;54618;52.018;5.576;2023-08-06T10:42:28;5.93;;;3.55;;
67819;SDS011;54618;52.018;5.576;2023-08-06T10:47:40;8.18;;;3.70;;
67819;SDS011;54618;52.018;5.576;2023-08-06T10:50:13;6.13;;;3.53;;
67819;SDS011;54618;52.018;5.576;2023-08-06T10:52:43;9.85;;;3.63;;
67819;SDS011;54618;52.018;5.576;2023-08-06T10:55:09;7.43;;;3.72;;
67819;SDS011;54618;52.018;5.576;2023-08-06T10:57:35;6.50;;;3.85;;
67819;SDS011;54618;52.018;5.576;2023-08-06T11:00:05;6.88;;;3.42;;
67819;SDS011;54618;52.018;5.576;2023-08-06T11:02:35;7.50;;;2.92;;
67819;SDS011;54618;52.018;5.576;2023-08-06T11:05:08;6.95;;;3.47;;
67819;SDS011;54618;52.018;5.576;2023-08-06T11:07:34;7.93;;;4.10;;
67819;SDS011;54618;52.018;5.576;2023-08-06T11:10:04;9.32;;;3.47;;
67819;SDS011;54618;52.018;5.576;2023-08-06T11:12:34;8.35;;;3.45;;
67819;SDS011;54618;52.018;5.576;2023-08-06T11:15:03;10.15;;;3.80;;
67819;SDS011;54618;52.018;5.576;2023-08-06T11:17:31;7.90;;;3.88;;
67819;SDS011;54618;52.018;5.576;2023-08-06T11:20:02;8.65;;;3.70;;
67819;SDS011;54618;52.018;5.576;2023-08-06T11:22:29;8.15;;;4.00;;
67819;SDS011;54618;52.018;5.576;2023-08-06T11:24:57;7.80;;;3.70;;
67819;SDS011;54618;52.018;5.576;2023-08-06T11:27:25;6.82;;;3.60;;
67819;SDS011;54618;52.018;5.576;2023-08-06T11:29:53;8.73;;;3.50;;
67819;SDS011;54618;52.018;5.576;2023-08-06T11:32:19;4.93;;;2.97;;
67819;SDS011;54618;52.018;5.576;2023-08-06T11:34:44;6.18;;;3.38;;
67819;SDS011;54618;52.018;5.576;2023-08-06T11:37:10;6.47;;;3.00;;
67819;SDS011;54618;52.018;5.576;2023-08-06T11:39:36;5.28;;;2.97;;
67819;SDS011;54618;52.018;5.576;2023-08-06T11:42:03;5.55;;;2.28;;
67819;SDS011;54618;52.018;5.576;2023-08-06T11:44:36;5.47;;;2.92;;
67819;SDS011;54618;52.018;5.576;2023-08-06T11:47:05;7.57;;;2.90;;
67819;SDS011;54618;52.018;5.576;2023-08-06T11:49:37;7.00;;;2.97;;
67819;SDS011;54618;52.018;5.576;2023-08-06T11:52:38;5.88;;;3.10;;
67819;SDS011;54618;52.018;5.576;2023-08-06T11:55:05;5.05;;;2.45;;
67819;SDS011;54618;52.018;5.576;2023-08-06T11:57:33;7.78;;;3.03;;
67819;SDS011;54618;52.018;5.576;2023-08-06T12:02:33;5.25;;;2.45;;
67819;SDS011;54618;52.018;5.576;2023-08-06T12:05:03;4.80;;;2.25;;
67819;SDS011;54618;52.018;5.576;2023-08-06T12:07:36;5.30;;;2.78;;
67819;SDS011;54618;52.018;5.576;2023-08-06T12:10:03;4.75;;;2.40;;
67819;SDS011;54618;52.018;5.576;2023-08-06T12:12:29;5.30;;;2.00;;
67819;SDS011;54618;52.018;5.576;2023-08-06T12:14:54;4.90;;;2.20;;
67819;SDS011;54618;52.018;5.576;2023-08-06T12:17:21;3.90;;;2.20;;
67819;SDS011;54618;52.018;5.576;2023-08-06T12:19:47;5.38;;;2.50;;
67819;SDS011;54618;52.018;5.576;2023-08-06T12:22:13;4.20;;;2.35;;
67819;SDS011;54618;52.018;5.576;2023-08-06T12:24:42;6.45;;;1.98;;
67819;SDS011;54618;52.018;5.576;2023-08-06T12:27:09;4.68;;;1.98;;
67819;SDS011;54618;52.018;5.576;2023-08-06T12:29:35;5.45;;;2.58;;
67819;SDS011;54618;52.018;5.576;2023-08-06T12:32:02;4.65;;;2.17;;
67819;SDS011;54618;52.018;5.576;2023-08-06T12:34:28;4.22;;;2.00;;
67819;SDS011;54618;52.018;5.576;2023-08-06T12:36:54;5.32;;;2.17;;
67819;SDS011;54618;52.018;5.576;2023-08-06T12:39:19;4.15;;;1.98;;
67819;SDS011;54618;52.018;5.576;2023-08-06T12:41:45;5.63;;;2.45;;
67819;SDS011;54618;52.018;5.576;2023-08-06T12:44:11;3.33;;;1.80;;
67819;SDS011;54618;52.018;5.576;2023-08-06T12:46:37;4.80;;;2.08;;
67819;SDS011;54618;52.018;5.576;2023-08-06T12:49:03;5.82;;;1.80;;
67819;SDS011;54618;52.018;5.576;2023-08-06T12:51:28;5.05;;;1.83;;
67819;SDS011;54618;52.018;5.576;2023-08-06T12:53:54;3.15;;;1.50;;
67819;SDS011;54618;52.018;5.576;2023-08-06T12:56:20;4.97;;;1.85;;
67819;SDS011;54618;52.018;5.576;2023-08-06T12:58:45;3.83;;;1.60;;
67819;SDS011;54618;52.018;5.576;2023-08-06T13:01:11;3.42;;;1.73;;
67819;SDS011;54618;52.018;5.576;2023-08-06T13:03:36;3.17;;;1.50;;
67819;SDS011;54618;52.018;5.576;2023-08-06T13:06:02;3.03;;;1.17;;
67819;SDS011;54618;52.018;5.576;2023-08-06T13:08:27;2.22;;;1.17;;
67819;SDS011;54618;52.018;5.576;2023-08-06T13:10:53;3.65;;;1.48;;
67819;SDS011;54618;52.018;5.576;2023-08-06T13:13:18;4.72;;;1.55;;
67819;SDS011;54618;52.018;5.576;2023-08-06T13:15:44;3.13;;;1.50;;
67819;SDS011;54618;52.018;5.576;2023-08-06T13:18:09;3.15;;;1.60;;
67819;SDS011;54618;52.018;5.576;2023-08-06T13:20:38;3.63;;;1.42;;
67819;SDS011;54618;52.018;5.576;2023-08-06T13:23:05;2.88;;;1.52;;
67819;SDS011;54618;52.018;5.576;2023-08-06T13:25:34;3.50;;;1.58;;
67819;SDS011;54618;52.018;5.576;2023-08-06T13:28:02;3.05;;;1.65;;
67819;SDS011;54618;52.018;5.576;2023-08-06T13:30:28;3.40;;;1.52;;
67819;SDS011;54618;52.018;5.576;2023-08-06T13:32:53;3.78;;;1.30;;
67819;SDS011;54618;52.018;5.576;2023-08-06T13:35:21;4.07;;;1.40;;
67819;SDS011;54618;52.018;5.576;2023-08-06T13:37:47;3.22;;;1.30;;
67819;SDS011;54618;52.018;5.576;2023-08-06T13:40:13;3.38;;;1.33;;
67819;SDS011;54618;52.018;5.576;2023-08-06T13:42:38;3.65;;;1.45;;
67819;SDS011;54618;52.018;5.576;2023-08-06T13:45:05;2.60;;;1.10;;
67819;SDS011;54618;52.018;5.576;2023-08-06T13:47:31;2.53;;;1.33;;
67819;SDS011;54618;52.018;5.576;2023-08-06T13:49:57;3.88;;;1.40;;
67819;SDS011;54618;52.018;5.576;2023-08-06T13:52:22;3.30;;;1.30;;
67819;SDS011;54618;52.018;5.576;2023-08-06T13:54:50;3.63;;;1.67;;
67819;SDS011;54618;52.018;5.576;2023-08-06T13:57:15;4.10;;;1.30;;
67819;SDS011;54618;52.018;5.576;2023-08-06T13:59:42;2.97;;;1.27;;
67819;SDS011;54618;52.018;5.576;2023-08-06T14:02:08;4.57;;;1.75;;
67819;SDS011;54618;52.018;5.576;2023-08-06T14:04:34;3.80;;;1.52;;
67819;SDS011;54618;52.018;5.576;2023-08-06T14:07:00;3.60;;;1.60;;
67819;SDS011;54618;52.018;5.576;2023-08-06T14:09:34;4.57;;;1.88;;
67819;SDS011;54618;52.018;5.576;2023-08-06T14:11:59;4.63;;;1.63;;
67819;SDS011;54618;52.018;5.576;2023-08-06T14:14:28;3.95;;;2.00;;
67819;SDS011;54618;52.018;5.576;2023-08-06T14:16:54;4.90;;;1.73;;
67819;SDS011;54618;52.018;5.576;2023-08-06T14:19:20;6.18;;;1.83;;
67819;SDS011;54618;52.018;5.576;2023-08-06T14:21:45;3.65;;;1.92;;
67819;SDS011;54618;52.018;5.576;2023-08-06T14:24:11;3.88;;;1.85;;
67819;SDS011;54618;52.018;5.576;2023-08-06T14:26:37;4.85;;;1.70;;
67819;SDS011;54618;52.018;5.576;2023-08-06T14:29:03;4.53;;;2.17;;
67819;SDS011;54618;52.018;5.576;2023-08-06T14:31:29;5.38;;;1.90;;
67819;SDS011;54618;52.018;5.576;2023-08-06T14:33:54;4.20;;;1.90;;
67819;SDS011;54618;52.018;5.576;2023-08-06T14:36:20;5.95;;;1.70;;
67819;SDS011;54618;52.018;5.576;2023-08-06T14:38:45;4.57;;;1.90;;
67819;SDS011;54618;52.018;5.576;2023-08-06T14:41:11;7.63;;;2.17;;
67819;SDS011;54618;52.018;5.576;2023-08-06T14:43:37;5.25;;;2.30;;
67819;SDS011;54618;52.018;5.576;2023-08-06T14:46:02;4.45;;;2.50;;
67819;SDS011;54618;52.018;5.576;2023-08-06T14:48:28;6.13;;;2.25;;
67819;SDS011;54618;52.018;5.576;2023-08-06T14:50:55;6.05;;;2.42;;
67819;SDS011;54618;52.018;5.576;2023-08-06T14:53:20;3.88;;;2.30;;